HOURLY OBS INDEX

038

Channel Country

BIRDSVILLE AIRPORT

Site: 038026
Alt: 46.6m
0.0km WNW of BIRDSVILLE


  Time     Wind        Temp  DP   Baro     Rain since   Rain past  Vis(m), Cloud(base in m), Weather
  local        km/h                         9am  last   hr   10m    
Mon 10:00  SSE 13/ 17  11.4  4.2  1026.6    0.0   0.0   0.0   0.0   ----- 
Mon 10:30  SSE 15/ 19  13.3  5.5  1026.8    0.0   0.0   0.0   0.0   ----- 
Mon 11:00  SSE 15/ 19  14.3  5.7  1026.7    0.0   0.0   0.0   0.0   ----- 
Mon 11:30  SSE 17/ 24  14.9  5.7  1026.5    0.0   0.0   0.0   0.0   ----- 
Mon 12:00   SE 17/ 24  15.7  5.6  1026.2    0.0   0.0   0.0   0.0   ----- 
Mon 12:30  SSE 17/ 24  16.3  5.0  1025.8    0.0   0.0   0.0   0.0   ----- 
Mon 13:00    S 17/ 26  16.7  4.7  1025.1    0.0   0.0   0.0   0.0   ----- 
Mon 13:30  SSW 20/ 26  16.7  4.1  1024.5    0.0   0.0   0.0   0.0   ----- 
Mon 14:00  SSE 20/ 26  17.7  4.3  1024.2    0.0   0.0   0.0   0.0   ----- 
Mon 14:30    S 22/ 30  17.8  4.4  1023.9    0.0   0.0   0.0   0.0   ----- 

WINDORAH AIRPORT

Site: 038076
Alt: 132.2m
2km NNE of WINDORAH


  Time     Wind        Temp  DP   Baro     Rain since   Rain past  Vis(m), Cloud(base in m), Weather
  local        km/h                         9am  last   hr   10m    
Mon 10:00  SSW 13/ 17  12.4  3.1  1025.2    0.0   0.0   0.0   0.0   10000 
Mon 10:30  SSW 15/ 20  13.7  3.2  1024.9    0.0   0.0   0.0   0.0   10000 
Mon 11:00   SW 17/ 24  14.5  3.3  1024.7    0.0   0.0   0.0   0.0   10000 
Mon 11:30   SW 17/ 26  15.1  3.3  1024.3    0.0   0.0   0.0   0.0   10000|SC1230 
Mon 12:00  WSW 19/ 28  15.4  3.5  1024.3    0.0   0.0   0.0   0.0   10000 
Mon 12:30   SW 20/ 28  16.3  2.7  1023.8    0.0   0.0   0.0   0.0   10000 
Mon 13:00  SSW 22/ 28  16.7  2.7  1023.3    0.0   0.0   0.0   0.0   10000 
Mon 13:30  SSW 22/ 35  16.4  0.9  1023.1    0.0   0.0   0.0   0.0   10000 
Mon 14:00  SSW 22/ 30  16.8  0.5  1022.7    0.0   0.0   0.0   0.0   10000 
Mon 14:30  SSW 20/ 30  17.3  0.0  1022.5    0.0   0.0   0.0   0.0   10000